Time;durP1;ratioP1;P1;durP2;ratioP2;P2;SDS_P1;SDS_P2;PMS_P1;PMS_P2;Temp;Humidity;BMP_temperature;BMP_pressure;BME280_temperature;BME280_humidity;BME280_pressure;Samples;Min_cycle;Max_cycle;Signal;HPM_P1;HPM_P2
2024/01/08 00:00:05;;;;;;;7.37;3.03;;;;;;;-6.43;67.57;102455.31;4964141;28;20046;-65
2024/01/08 00:02:30;;;;;;;10.63;4.30;;;;;;;-6.49;67.64;102449.34;4983906;28;20406;-62
2024/01/08 00:04:56;;;;;;;6.67;2.07;;;;;;;-6.53;67.76;102454.81;4974533;28;20042;-71
2024/01/08 00:07:21;;;;;;;8.82;4.03;;;;;;;-6.53;68.25;102457.38;4967576;28;20193;-66
2024/01/08 00:09:47;;;;;;;8.70;3.07;;;;;;;-6.53;68.26;102458.31;4971916;28;20129;-65
2024/01/08 00:12:12;;;;;;;11.53;3.53;;;;;;;-6.54;68.51;102451.31;4972514;28;20042;-71
2024/01/08 00:17:04;;;;;;;9.50;3.85;;;;;;;-6.61;68.74;102457.25;4997571;28;20377;-67
2024/01/08 00:19:30;;;;;;;9.07;3.10;;;;;;;-6.61;68.62;102461.50;4997749;28;20041;-61
2024/01/08 00:21:55;;;;;;;9.63;3.72;;;;;;;-6.62;68.54;102464.78;4989575;28;20113;-67
2024/01/08 00:24:20;;;;;;;10.90;4.07;;;;;;;-6.61;68.61;102471.78;4978653;28;20026;-62
2024/01/08 00:26:46;;;;;;;10.67;4.07;;;;;;;-6.66;68.60;102471.13;4977955;28;20174;-62
2024/01/08 00:29:11;;;;;;;9.40;3.27;;;;;;;-6.66;68.98;102478.81;4978010;28;20034;-69
2024/01/08 00:31:36;;;;;;;11.30;3.57;;;;;;;-6.69;68.96;102468.16;4978191;28;20045;-67
2024/01/08 00:36:34;;;;;;;7.82;3.38;;;;;;;-6.73;68.88;102463.31;5100653;27;20355;-70
2024/01/08 00:38:59;;;;;;;8.98;3.38;;;;;;;-6.69;69.47;102467.22;5082296;28;20044;-65
2024/01/08 00:41:24;;;;;;;11.03;3.50;;;;;;;-6.68;69.71;102463.94;5066099;28;20142;-65
2024/01/08 00:43:51;;;;;;;7.73;2.73;;;;;;;-6.71;69.56;102464.44;5064180;28;20071;-70
2024/01/08 00:46:17;;;;;;;7.55;3.10;;;;;;;-6.67;69.54;102476.06;5067921;28;20128;-66
2024/01/08 00:48:42;;;;;;;11.63;4.05;;;;;;;-6.68;69.76;102469.06;5068356;28;20136;-67
2024/01/08 00:51:09;;;;;;;6.80;3.43;;;;;;;-6.69;69.71;102482.63;5079107;28;20504;-65
2024/01/08 00:53:35;;;;;;;6.53;2.17;;;;;;;-6.70;69.98;102475.63;5074241;28;20036;-64
2024/01/08 00:56:00;;;;;;;13.20;4.90;;;;;;;-6.69;70.38;102475.84;5069262;28;20089;-68
2024/01/08 00:58:25;;;;;;;6.53;2.50;;;;;;;-6.68;70.24;102479.34;5072508;28;20051;-65
2024/01/08 01:00:51;;;;;;;11.05;4.13;;;;;;;-6.72;70.33;102479.66;5069390;28;20072;-60
2024/01/08 01:05:32;;;;;;;9.77;3.25;;;;;;;-6.77;70.94;102475.53;5060752;28;20566;-62
2024/01/08 01:07:57;;;;;;;8.73;2.57;;;;;;;-6.78;71.10;102484.88;5046660;28;20981;-69
2024/01/08 01:10:22;;;;;;;8.55;2.95;;;;;;;-6.76;71.21;102496.28;5028346;28;20292;-63
2024/01/08 01:12:48;;;;;;;11.97;4.03;;;;;;;-6.79;71.44;102497.53;5021613;28;20581;-62
2024/01/08 01:15:13;;;;;;;11.27;3.50;;;;;;;-6.78;71.67;102486.53;5020254;28;20055;-68
2024/01/08 01:17:39;;;;;;;10.20;3.40;;;;;;;-6.80;71.41;102500.78;5020306;28;20486;-60
2024/01/08 01:20:05;;;;;;;8.83;3.00;;;;;;;-6.82;71.60;102498.03;5019963;28;20108;-70
2024/01/08 01:22:30;;;;;;;12.77;4.43;;;;;;;-6.80;71.69;102500.78;5020354;28;20285;-67
2024/01/08 01:24:56;;;;;;;11.27;4.60;;;;;;;-6.78;71.99;102495.16;5020557;28;20585;-64
2024/01/08 01:27:21;;;;;;;8.93;2.85;;;;;;;-6.77;72.14;102494.47;5027630;28;20297;-73
2024/01/08 01:29:46;;;;;;;12.33;4.47;;;;;;;-6.78;71.89;102502.88;5019894;28;20117;-67
2024/01/08 01:32:12;;;;;;;12.93;4.47;;;;;;;-6.77;71.86;102498.66;5019960;28;20049;-66
2024/01/08 01:37:03;;;;;;;9.02;3.28;;;;;;;-6.78;71.74;102501.94;5059969;28;20423;-62
2024/01/08 01:44:02;;;;;;;10.77;4.35;;;;;;;-6.83;71.56;102498.75;5080691;28;20426;-66
2024/01/08 01:48:45;;;;;;;9.50;4.15;;;;;;;-6.85;71.87;102510.44;5101320;27;20956;-68
2024/01/08 01:51:11;;;;;;;11.10;3.57;;;;;;;-6.83;71.85;102513.25;5073568;28;20048;-62
2024/01/08 01:53:36;;;;;;;7.97;2.63;;;;;;;-6.83;71.73;102514.16;5072761;28;20048;-63
2024/01/08 01:56:02;;;;;;;12.53;3.10;;;;;;;-6.83;71.82;102519.31;5061625;28;20053;-65
2024/01/08 01:58:27;;;;;;;11.45;3.88;;;;;;;-6.84;71.67;102514.88;5060755;28;20885;-63
2024/01/08 02:00:53;;;;;;;9.77;3.58;;;;;;;-6.86;71.91;102511.19;5074882;28;20040;-62
2024/01/08 02:10:24;;;;;;;15.80;4.78;;;;;;;-6.81;71.64;102517.88;5096312;27;20368;-62
2024/01/08 02:12:50;;;;;;;8.77;3.78;;;;;;;-6.84;71.81;102514.88;5081790;28;20638;-60
2024/01/08 02:17:47;;;;;;;12.25;4.65;;;;;;;-6.85;72.27;102514.66;5060261;28;20384;-67
2024/01/08 02:20:13;;;;;;;7.87;3.27;;;;;;;-6.86;72.40;102518.91;5049009;28;20468;-62
2024/01/08 02:22:40;;;;;;;13.60;3.58;;;;;;;-6.86;72.36;102524.03;5048918;28;20037;-59
2024/01/08 02:27:33;;;;;;;11.23;3.80;;;;;;;-6.86;72.00;102525.69;5101357;27;20440;-61
2024/01/08 02:29:58;;;;;;;7.57;2.80;;;;;;;-6.89;71.70;102530.38;5099774;28;20503;-70
2024/01/08 02:34:49;;;;;;;8.57;2.53;;;;;;;-6.87;71.55;102534.09;4997445;28;20413;-66
2024/01/08 02:37:15;;;;;;;8.43;2.50;;;;;;;-6.85;71.77;102531.00;4981429;28;20490;-62
2024/01/08 02:39:40;;;;;;;9.73;2.93;;;;;;;-6.87;71.15;102537.59;4976426;28;20085;-59
2024/01/08 02:42:05;;;;;;;14.53;5.00;;;;;;;-6.87;71.12;102539.22;4958551;28;20064;-65
2024/01/08 02:44:31;;;;;;;11.18;4.25;;;;;;;-6.86;71.05;102549.72;4958378;28;20047;-61
2024/01/08 02:46:56;;;;;;;12.55;4.60;;;;;;;-6.85;70.97;102541.28;4966335;28;20049;-69
2024/01/08 02:49:22;;;;;;;9.60;3.10;;;;;;;-6.84;70.91;102548.28;4958507;28;20065;-65
2024/01/08 02:51:47;;;;;;;10.90;4.00;;;;;;;-6.88;70.41;102552.78;4958474;28;20069;-59
2024/01/08 02:54:12;;;;;;;6.20;1.87;;;;;;;-6.85;70.54;102555.75;4969792;28;20345;-67
2024/01/08 02:56:38;;;;;;;13.87;3.63;;;;;;;-6.85;70.48;102559.25;4963073;28;20110;-61
2024/01/08 02:59:06;;;;;;;11.35;3.60;;;;;;;-6.86;70.11;102566.78;4959878;28;20294;-61
2024/01/08 03:01:33;;;;;;;9.20;4.03;;;;;;;-6.91;69.90;102561.00;4975535;28;20058;-67
2024/01/08 03:03:58;;;;;;;8.88;2.58;;;;;;;-6.90;69.87;102567.97;4960669;28;20051;-62
2024/01/08 03:06:24;;;;;;;10.02;3.50;;;;;;;-6.89;69.85;102568.91;4958123;28;20035;-62
2024/01/08 03:08:49;;;;;;;10.10;3.97;;;;;;;-6.87;69.87;102570.97;4962120;28;20031;-61
2024/01/08 03:11:14;;;;;;;8.67;3.07;;;;;;;-6.91;69.73;102572.91;4959447;28;20153;-67
2024/01/08 03:13:40;;;;;;;13.60;3.33;;;;;;;-6.92;69.15;102573.63;4958240;28;20559;-62
2024/01/08 03:16:06;;;;;;;6.50;2.40;;;;;;;-6.93;68.97;102580.41;4966111;28;20316;-64
2024/01/08 03:18:31;;;;;;;11.90;3.67;;;;;;;-6.90;69.12;102582.44;4957918;28;20574;-66
2024/01/08 03:20:56;;;;;;;12.50;4.27;;;;;;;-6.88;69.10;102583.59;4963013;28;20138;-67
2024/01/08 03:25:46;;;;;;;6.53;2.72;;;;;;;-6.94;69.18;102580.19;5080252;27;20364;-69
2024/01/08 03:30:36;;;;;;;10.52;4.47;;;;;;;-6.97;69.27;102595.19;5100641;27;20371;-66
2024/01/08 03:33:02;;;;;;;10.97;3.47;;;;;;;-7.00;69.21;102590.53;5079917;28;20036;-63
2024/01/08 03:35:27;;;;;;;9.55;3.22;;;;;;;-7.02;69.00;102586.84;5080675;28;20094;-69
2024/01/08 03:40:20;;;;;;;7.15;3.38;;;;;;;-7.02;68.98;102599.69;5049178;28;20373;-62
2024/01/08 03:42:45;;;;;;;9.73;3.87;;;;;;;-7.01;69.28;102598.97;5040779;28;20037;-66
2024/01/08 03:45:11;;;;;;;8.52;3.25;;;;;;;-7.01;69.22;102604.13;5040064;28;20118;-66
2024/01/08 03:47:36;;;;;;;10.80;3.43;;;;;;;-7.01;69.48;102615.31;5040343;28;20120;-63
2024/01/08 03:50:01;;;;;;;9.27;2.73;;;;;;;-6.99;69.36;102607.81;5039950;28;20064;-71
2024/01/08 03:52:27;;;;;;;9.70;3.67;;;;;;;-7.01;69.53;102619.53;5040669;28;20064;-60
2024/01/08 03:54:52;;;;;;;7.93;3.07;;;;;;;-7.03;69.39;102623.50;5040338;28;20094;-63
2024/01/08 03:57:17;;;;;;;7.43;2.47;;;;;;;-7.02;69.54;102617.66;5039865;28;20041;-71
2024/01/08 03:59:43;;;;;;;13.40;2.23;;;;;;;-7.01;69.68;102624.66;5039970;28;20082;-59
2024/01/08 04:02:25;;;;;;;9.77;3.63;;;;;;;-7.02;69.38;102623.72;5067244;28;20431;-67
2024/01/08 04:04:50;;;;;;;12.07;3.57;;;;;;;-7.03;69.64;102636.34;5049172;28;20048;-64
2024/01/08 04:07:15;;;;;;;9.73;3.60;;;;;;;-7.05;69.68;102633.56;5041623;28;20045;-70
2024/01/08 04:12:07;;;;;;;12.25;4.35;;;;;;;-7.08;69.48;102642.47;5108416;27;20362;-62
2024/01/08 04:14:32;;;;;;;14.77;3.72;;;;;;;-7.09;69.54;102646.69;5086286;28;20025;-63
2024/01/08 04:16:57;;;;;;;10.43;3.97;;;;;;;-7.11;69.43;102649.78;5080278;28;20040;-69
2024/01/08 04:21:37;;;;;;;9.27;3.70;;;;;;;-7.12;69.45;102647.91;5104264;27;20424;-62
2024/01/08 04:24:03;;;;;;;10.20;3.17;;;;;;;-7.15;69.41;102655.16;5082152;28;20969;-70
2024/01/08 04:26:28;;;;;;;9.43;3.10;;;;;;;-7.17;69.30;102656.59;5080270;28;20032;-64
2024/01/08 04:28:54;;;;;;;10.13;3.93;;;;;;;-7.15;69.67;102650.03;5080447;28;20139;-69
2024/01/08 04:33:48;;;;;;;10.88;4.07;;;;;;;-7.16;69.62;102658.47;5080776;27;20363;-61
2024/01/08 04:36:14;;;;;;;12.82;4.63;;;;;;;-7.19;69.73;102661.53;5080229;28;20735;-67
2024/01/08 04:38:40;;;;;;;10.03;3.60;;;;;;;-7.16;69.48;102674.81;5083843;28;20097;-67
2024/01/08 04:41:06;;;;;;;14.80;3.65;;;;;;;-7.15;69.56;102675.69;5080238;28;20555;-68
2024/01/08 04:43:31;;;;;;;16.03;4.73;;;;;;;-7.17;69.66;102669.44;5080510;28;20535;-63
2024/01/08 04:45:57;;;;;;;12.15;3.88;;;;;;;-7.15;69.68;102674.06;5080260;28;20064;-66
2024/01/08 04:48:22;;;;;;;7.30;2.40;;;;;;;-7.18;69.58;102672.72;5080584;28;20055;-68
2024/01/08 04:50:47;;;;;;;6.67;2.97;;;;;;;-7.20;69.80;102671.59;5079931;28;20136;-70
2024/01/08 04:53:13;;;;;;;8.10;2.67;;;;;;;-7.19;69.94;102669.22;5080243;28;20121;-64
2024/01/08 04:55:39;;;;;;;8.07;2.67;;;;;;;-7.17;69.87;102674.56;5079966;28;20127;-72
2024/01/08 04:58:08;;;;;;;9.30;3.40;;;;;;;-7.16;69.47;102684.16;5080070;28;20650;-69
2024/01/08 05:00:33;;;;;;;10.25;4.22;;;;;;;-7.15;69.63;102692.03;5083924;28;20126;-66
2024/01/08 05:02:58;;;;;;;8.03;2.67;;;;;;;-7.17;69.55;102688.34;5082123;28;20185;-70
2024/01/08 05:05:24;;;;;;;7.83;2.63;;;;;;;-7.15;69.64;102693.69;5079653;28;20561;-69
2024/01/08 05:07:49;;;;;;;8.47;3.20;;;;;;;-7.16;69.63;102690.22;5083667;28;20286;-65
2024/01/08 05:10:14;;;;;;;8.20;2.33;;;;;;;-7.18;69.67;102695.81;5079677;28;20564;-65
2024/01/08 05:12:40;;;;;;;9.67;3.10;;;;;;;-7.17;69.66;102703.75;5081465;28;20036;-67
2024/01/08 05:17:34;;;;;;;13.18;4.25;;;;;;;-7.15;69.38;102701.38;5060620;28;20396;-62
2024/01/08 05:19:59;;;;;;;13.53;3.07;;;;;;;-7.17;69.59;102690.00;5033890;28;20664;-68
2024/01/08 05:22:25;;;;;;;8.82;3.35;;;;;;;-7.14;69.37;102703.25;5029457;28;20132;-64
2024/01/08 05:24:50;;;;;;;8.73;2.13;;;;;;;-7.16;69.70;102703.06;5028596;28;20545;-61
2024/01/08 05:27:16;;;;;;;10.37;3.43;;;;;;;-7.14;69.90;102703.25;5020536;28;20213;-69
2024/01/08 05:29:41;;;;;;;7.50;2.70;;;;;;;-7.14;69.75;102703.25;5020687;28;20561;-65
2024/01/08 05:32:06;;;;;;;8.37;2.50;;;;;;;-7.16;69.87;102700.47;5032374;28;20029;-61
2024/01/08 05:34:32;;;;;;;11.10;2.92;;;;;;;-7.15;70.03;102701.38;5048558;28;20065;-63
2024/01/08 05:36:57;;;;;;;11.47;4.43;;;;;;;-7.16;69.82;102690.22;5023150;28;20172;-63
2024/01/08 05:39:23;;;;;;;13.93;3.70;;;;;;;-7.13;69.73;102705.09;5020437;28;20045;-72
2024/01/08 05:41:48;;;;;;;11.57;4.13;;;;;;;-7.14;70.20;102709.31;5020279;28;20089;-65
2024/01/08 05:44:13;;;;;;;8.40;2.97;;;;;;;-7.14;70.19;102703.25;5020033;28;20108;-63
2024/01/08 05:46:42;;;;;;;11.65;4.85;;;;;;;-7.12;69.92;102709.53;5019910;28;20413;-71
2024/01/08 05:49:08;;;;;;;9.33;3.87;;;;;;;-7.11;69.93;102703.69;5028244;28;20049;-61
2024/01/08 05:51:33;;;;;;;10.55;3.25;;;;;;;-7.12;70.08;102707.91;5020148;28;20761;-68
2024/01/08 05:53:58;;;;;;;11.47;3.23;;;;;;;-7.12;70.40;102705.34;5019872;28;20076;-72
2024/01/08 05:56:24;;;;;;;7.37;2.83;;;;;;;-7.12;70.43;102715.59;5019845;28;20125;-68
2024/01/08 06:03:22;;;;;;;12.70;4.25;;;;;;;-7.15;70.67;102735.69;5060840;27;20902;-67
2024/01/08 06:05:48;;;;;;;9.57;3.58;;;;;;;-7.15;70.91;102733.13;5044569;28;20052;-70
2024/01/08 06:08:13;;;;;;;7.00;2.50;;;;;;;-7.17;71.13;102733.63;5048390;28;20056;-62
2024/01/08 06:10:40;;;;;;;9.20;3.22;;;;;;;-7.19;71.26;102741.13;5048485;28;20055;-70
2024/01/08 06:15:23;;;;;;;9.70;3.97;;;;;;;-7.21;71.32;102732.28;5060209;28;20933;-66
2024/01/08 06:17:48;;;;;;;9.43;3.43;;;;;;;-7.18;71.20;102742.03;5060608;28;20033;-62
2024/01/08 06:20:14;;;;;;;13.60;4.30;;;;;;;-7.16;71.22;102743.19;5056990;28;20155;-68
2024/01/08 06:22:39;;;;;;;8.70;3.33;;;;;;;-7.19;71.15;102755.59;5040492;28;20462;-67
2024/01/08 06:25:05;;;;;;;7.07;2.70;;;;;;;-7.17;71.35;102751.59;5048142;28;20049;-58
2024/01/08 06:27:30;;;;;;;11.23;3.83;;;;;;;-7.17;71.29;102751.59;5040434;28;20474;-64
2024/01/08 06:29:55;;;;;;;7.35;3.60;;;;;;;-7.18;71.62;102755.81;5040077;28;20049;-66
2024/01/08 06:32:21;;;;;;;8.23;2.77;;;;;;;-7.17;71.55;102757.69;5044845;28;20032;-68
2024/01/08 06:34:46;;;;;;;12.33;2.97;;;;;;;-7.18;71.60;102760.00;5043876;28;20132;-64
2024/01/08 06:37:12;;;;;;;11.93;3.93;;;;;;;-7.18;71.77;102767.72;5056595;28;20569;-66
2024/01/08 06:39:38;;;;;;;9.40;3.50;;;;;;;-7.19;71.97;102765.84;5054591;28;20041;-67
2024/01/08 06:42:04;;;;;;;7.05;2.95;;;;;;;-7.18;71.85;102775.41;5043372;28;20359;-62
2024/01/08 06:44:29;;;;;;;8.73;2.92;;;;;;;-7.18;72.10;102773.78;5046069;28;20068;-64
2024/01/08 06:46:55;;;;;;;9.63;3.57;;;;;;;-7.18;71.96;102775.41;5047924;28;20124;-69
2024/01/08 06:49:21;;;;;;;10.45;4.07;;;;;;;-7.17;72.05;102780.78;5040027;28;20654;-62
2024/01/08 06:51:46;;;;;;;10.17;2.50;;;;;;;-7.17;72.28;102774.72;5040000;28;20037;-64
2024/01/08 06:54:12;;;;;;;10.35;4.07;;;;;;;-7.17;72.31;102785.91;5039705;28;20045;-61
2024/01/08 06:56:38;;;;;;;10.27;3.70;;;;;;;-7.16;72.36;102781.72;5047893;28;20036;-64
2024/01/08 07:06:11;;;;;;;9.75;3.92;;;;;;;-7.16;72.95;102803.19;5103856;27;20436;-67
2024/01/08 07:08:36;;;;;;;9.47;3.43;;;;;;;-7.13;72.86;102810.38;5086610;28;20036;-68
2024/01/08 07:11:02;;;;;;;12.52;3.78;;;;;;;-7.14;73.04;102803.38;5064826;28;20111;-62
2024/01/08 07:13:27;;;;;;;9.37;4.13;;;;;;;-7.12;73.63;102819.94;5064602;28;20028;-63
2024/01/08 07:15:52;;;;;;;11.30;3.37;;;;;;;-7.10;74.03;102815.94;5063056;28;20520;-63
2024/01/08 07:18:18;;;;;;;12.57;3.78;;;;;;;-7.03;74.49;102822.19;5068784;28;20036;-68
2024/01/08 07:20:44;;;;;;;12.13;4.03;;;;;;;-7.02;74.27;102823.13;5059932;28;20045;-63
2024/01/08 07:23:11;;;;;;;11.33;4.13;;;;;;;-7.02;74.15;102826.63;5059946;28;20086;-66
2024/01/08 07:25:37;;;;;;;8.48;3.13;;;;;;;-7.01;74.25;102825.00;5067733;28;20109;-69
2024/01/08 07:28:08;;;;;;;6.63;2.53;;;;;;;-7.00;74.31;102816.53;5059272;28;20076;-70
2024/01/08 07:30:34;;;;;;;6.05;2.65;;;;;;;-7.01;74.56;102825.94;5071802;28;20035;-63
2024/01/08 07:32:59;;;;;;;13.07;4.53;;;;;;;-6.96;74.75;102823.06;5078914;28;20466;-65
2024/01/08 07:35:25;;;;;;;9.15;3.92;;;;;;;-6.98;74.62;102830.53;5072414;28;20455;-66
2024/01/08 07:37:55;;;;;;;13.87;3.90;;;;;;;-6.97;74.75;102829.84;5063720;28;20032;-67
2024/01/08 07:40:24;;;;;;;8.15;3.33;;;;;;;-6.98;74.77;102830.53;5052472;28;20047;-66
2024/01/08 07:42:55;;;;;;;10.90;4.10;;;;;;;-6.96;74.65;102841.97;5067607;28;20051;-60
2024/01/08 07:45:21;;;;;;;10.53;4.70;;;;;;;-6.93;74.75;102842.41;5052675;28;20041;-70
2024/01/08 07:47:47;;;;;;;9.10;3.30;;;;;;;-6.93;74.70;102850.13;5060673;28;20075;-67
2024/01/08 07:50:13;;;;;;;12.25;3.38;;;;;;;-6.90;74.89;102850.53;5068062;28;20037;-69
2024/01/08 07:52:38;;;;;;;11.07;3.63;;;;;;;-6.89;75.27;102852.41;5059656;28;20044;-61
2024/01/08 07:55:04;;;;;;;10.32;3.90;;;;;;;-6.85;74.96;102852.13;5058966;28;20033;-65
2024/01/08 07:57:29;;;;;;;11.23;3.50;;;;;;;-6.83;74.93;102855.84;5059175;28;20131;-59
2024/01/08 07:59:56;;;;;;;17.20;5.20;;;;;;;-6.77;74.96;102854.16;5059658;28;20479;-62
2024/01/08 08:02:21;;;;;;;10.93;4.75;;;;;;;-6.64;75.43;102856.81;5074483;28;20135;-60
2024/01/08 08:04:47;;;;;;;11.00;4.00;;;;;;;-6.54;75.10;102857.41;5066570;28;20186;-64
2024/01/08 08:07:12;;;;;;;9.30;3.33;;;;;;;-6.57;74.57;102867.25;5064044;28;20054;-59
2024/01/08 08:09:37;;;;;;;13.90;5.00;;;;;;;-6.60;74.71;102862.59;5074105;28;20884;-64
2024/01/08 08:12:03;;;;;;;8.67;3.77;;;;;;;-6.65;74.50;102862.66;5064402;28;20127;-65
2024/01/08 08:14:28;;;;;;;10.70;2.83;;;;;;;-6.62;74.63;102876.91;5058259;28;20032;-59
2024/01/08 08:16:54;;;;;;;12.63;4.87;;;;;;;-6.59;74.41;102876.38;5056749;28;20504;-64
2024/01/08 08:19:19;;;;;;;9.35;3.78;;;;;;;-6.53;74.65;102881.47;5044300;28;20041;-62
2024/01/08 08:21:46;;;;;;;10.37;3.20;;;;;;;-6.52;74.52;102889.41;5044529;28;20071;-64
2024/01/08 08:24:12;;;;;;;7.95;3.92;;;;;;;-6.50;74.08;102895.66;5047803;28;20094;-66
2024/01/08 08:26:37;;;;;;;7.63;2.97;;;;;;;-6.46;74.32;102884.22;5049991;28;20037;-64
2024/01/08 08:29:03;;;;;;;12.90;4.40;;;;;;;-6.42;74.01;102901.91;5044700;28;20037;-66
2024/01/08 08:31:29;;;;;;;12.45;4.65;;;;;;;-6.39;73.76;102907.47;5051217;28;20802;-60
2024/01/08 08:33:55;;;;;;;14.27;4.97;;;;;;;-6.34;73.81;102911.63;5048623;28;20094;-64
2024/01/08 08:36:20;;;;;;;10.53;4.40;;;;;;;-6.28;73.64;102918.56;5044988;28;20049;-61
2024/01/08 08:38:46;;;;;;;14.27;3.97;;;;;;;-6.26;73.36;102922.28;5045257;28;20474;-66
2024/01/08 08:41:11;;;;;;;7.75;3.08;;;;;;;-6.19;73.34;102927.59;5045099;28;20102;-60
2024/01/08 08:43:37;;;;;;;11.27;4.33;;;;;;;-6.16;73.48;102933.16;5045862;28;20153;-66
2024/01/08 08:46:02;;;;;;;13.10;4.43;;;;;;;-6.11;73.30;102934.72;5052898;28;20044;-61
2024/01/08 08:48:28;;;;;;;10.88;3.97;;;;;;;-6.11;72.89;102938.94;5045844;28;20056;-65
2024/01/08 08:50:53;;;;;;;10.40;4.13;;;;;;;-6.06;72.79;102937.94;5052904;28;20029;-61
2024/01/08 08:53:19;;;;;;;6.90;2.57;;;;;;;-6.13;72.22;102930.09;5053621;28;20075;-66
2024/01/08 08:55:44;;;;;;;18.52;4.70;;;;;;;-6.08;72.60;102926.53;5045051;28;20032;-60
2024/01/08 08:58:10;;;;;;;15.13;4.03;;;;;;;-6.03;72.14;102940.03;5045560;28;20033;-64
2024/01/08 09:00:38;;;;;;;8.63;3.27;;;;;;;-6.05;71.74;102939.81;5050096;28;20033;-57
2024/01/08 09:05:33;;;;;;;9.90;4.78;;;;;;;-5.97;71.99;102949.50;5103628;27;20367;-60
2024/01/08 09:07:58;;;;;;;9.43;3.15;;;;;;;-5.97;71.49;102939.22;5101387;28;20538;-67
2024/01/08 09:10:24;;;;;;;12.13;3.77;;;;;;;-5.91;71.55;102946.88;5102018;28;20035;-65
2024/01/08 09:12:49;;;;;;;9.77;3.43;;;;;;;-5.93;71.64;102946.69;5117827;28;20042;-61
2024/01/08 09:15:14;;;;;;;6.17;2.07;;;;;;;-5.91;71.55;102955.53;5101780;28;20107;-59
2024/01/08 09:19:59;;;;;;;12.30;4.47;;;;;;;-5.79;71.37;102957.22;5071730;27;20427;-63
2024/01/08 09:22:24;;;;;;;6.73;2.13;;;;;;;-5.72;71.44;102961.56;5060626;28;20042;-60
2024/01/08 09:24:50;;;;;;;11.90;4.63;;;;;;;-5.70;71.42;102976.53;5059961;28;20520;-63
2024/01/08 09:28:08;;;;;;;10.45;4.22;;;;;;;-5.72;71.22;102970.22;5080237;27;20376;-63
2024/01/08 09:30:33;;;;;;;8.93;2.93;;;;;;;-5.62;71.28;102971.53;5074865;28;20550;-62
2024/01/08 09:32:59;;;;;;;6.22;1.85;;;;;;;-5.54;71.41;102965.78;5060249;28;20052;-65
2024/01/08 09:35:24;;;;;;;9.37;3.77;;;;;;;-5.50;71.20;102961.28;5067163;28;20377;-64
2024/01/08 09:37:49;;;;;;;7.53;2.83;;;;;;;-5.38;71.38;102964.63;5067285;28;20070;-64
2024/01/08 09:40:15;;;;;;;9.83;3.53;;;;;;;-5.35;70.87;102968.56;5062798;28;20033;-57
2024/01/08 09:42:40;;;;;;;6.78;2.78;;;;;;;-5.29;70.79;102976.19;5062790;28;20056;-67
2024/01/08 09:45:22;;;;;;;8.40;3.43;;;;;;;-5.35;71.00;102978.84;5079208;28;20047;-61
2024/01/08 09:47:49;;;;;;;6.15;2.47;;;;;;;-5.24;71.05;102975.19;5062579;28;20097;-59
2024/01/08 09:50:15;;;;;;;6.63;2.75;;;;;;;-5.30;70.53;102979.50;5070382;28;20586;-61
2024/01/08 09:52:44;;;;;;;8.27;3.15;;;;;;;-5.18;70.29;102980.28;5062255;28;20489;-64
2024/01/08 09:55:10;;;;;;;6.90;2.15;;;;;;;-5.07;70.25;102981.00;5059893;28;20052;-62
2024/01/08 09:57:36;;;;;;;7.87;2.33;;;;;;;-5.06;69.97;102976.78;5060646;28;20051;-58
2024/01/08 10:00:03;;;;;;;8.93;3.15;;;;;;;-5.00;69.99;102988.88;5069469;28;20108;-60
2024/01/08 10:02:38;;;;;;;12.23;4.40;;;;;;;-4.98;69.63;102984.84;5062916;28;20091;-59
2024/01/08 10:05:06;;;;;;;10.13;3.57;;;;;;;-4.89;69.43;102982.63;5061071;28;20064;-61
2024/01/08 10:10:00;;;;;;;8.90;3.63;;;;;;;-4.78;69.50;102978.94;5141286;27;20376;-58
2024/01/08 10:12:27;;;;;;;8.75;3.63;;;;;;;-4.76;69.23;102986.13;5131759;27;20434;-60
2024/01/08 10:14:54;;;;;;;10.02;3.50;;;;;;;-4.72;68.60;102977.16;5133477;27;20040;-59
2024/01/08 10:17:23;;;;;;;11.85;3.55;;;;;;;-4.62;68.52;102980.28;5134472;27;20035;-59
2024/01/08 10:19:48;;;;;;;13.97;4.27;;;;;;;-4.62;68.47;102985.44;5141599;27;20038;-65
2024/01/08 10:22:14;;;;;;;8.13;2.83;;;;;;;-4.63;68.16;102978.41;5141919;27;20670;-60
2024/01/08 10:24:44;;;;;;;12.33;4.00;;;;;;;-4.61;67.87;102980.50;5141788;27;20103;-62
2024/01/08 10:27:11;;;;;;;8.80;3.25;;;;;;;-4.58;68.20;102982.53;5142027;27;20057;-64
2024/01/08 10:29:37;;;;;;;10.52;3.95;;;;;;;-4.58;67.52;102982.53;5142383;27;20041;-58
2024/01/08 10:32:04;;;;;;;8.52;2.50;;;;;;;-4.51;67.72;102975.88;5141813;27;20088;-63
2024/01/08 10:34:30;;;;;;;13.50;3.83;;;;;;;-4.48;67.42;102981.41;5141702;27;20027;-65
2024/01/08 10:36:57;;;;;;;11.98;3.65;;;;;;;-4.43;67.00;102984.63;5141856;27;20039;-61
2024/01/08 10:39:23;;;;;;;8.93;3.50;;;;;;;-4.45;66.84;102976.69;5141218;27;20054;-63
2024/01/08 10:41:49;;;;;;;9.57;3.23;;;;;;;-4.43;66.68;102976.88;5141671;27;20527;-65
2024/01/08 10:44:14;;;;;;;5.93;1.83;;;;;;;-4.42;66.15;102973.59;5141433;27;20284;-65
2024/01/08 10:46:56;;;;;;;13.90;3.53;;;;;;;-4.42;65.97;102974.53;5119261;27;20571;-60
2024/01/08 10:49:30;;;;;;;4.93;1.80;;;;;;;-4.42;65.92;102961.63;5116581;27;21161;-59
2024/01/08 10:51:57;;;;;;;12.75;3.45;;;;;;;-4.36;65.85;102971.84;5141106;27;20039;-62
2024/01/08 10:54:25;;;;;;;5.82;1.92;;;;;;;-4.26;65.92;102968.84;5141083;27;20040;-65
2024/01/08 10:56:55;;;;;;;8.30;3.20;;;;;;;-4.21;65.03;102978.13;5141317;27;20039;-59
2024/01/08 10:59:23;;;;;;;7.88;2.65;;;;;;;-4.27;64.55;102977.28;5137260;27;20096;-65
2024/01/08 11:01:50;;;;;;;10.07;3.83;;;;;;;-4.17;63.94;102972.66;5129826;27;20038;-60
2024/01/08 11:04:15;;;;;;;6.97;3.03;;;;;;;-4.23;63.61;102972.75;5140868;27;20034;-65
2024/01/08 11:06:42;;;;;;;6.63;2.93;;;;;;;-4.20;63.25;102980.00;5133823;27;20038;-63
2024/01/08 11:09:23;;;;;;;9.60;3.03;;;;;;;-4.15;62.70;102974.72;5138731;27;20337;-63
2024/01/08 11:11:49;;;;;;;7.22;2.10;;;;;;;-4.07;63.13;102975.75;5131050;27;20027;-67
2024/01/08 11:14:16;;;;;;;7.75;1.98;;;;;;;-4.15;61.94;102974.72;5140799;27;20108;-59
2024/01/08 11:16:42;;;;;;;5.20;2.28;;;;;;;-4.13;61.96;102974.91;5133746;27;20544;-61
2024/01/08 11:19:16;;;;;;;8.23;3.63;;;;;;;-4.09;61.55;102975.53;5130153;27;20043;-64
2024/01/08 11:21:42;;;;;;;8.27;2.90;;;;;;;-3.98;61.04;102970.16;5127116;27;20064;-60
2024/01/08 11:24:09;;;;;;;7.87;2.47;;;;;;;-3.89;61.33;102972.09;5126837;27;20031;-63
2024/01/08 11:26:40;;;;;;;4.65;1.83;;;;;;;-3.78;61.57;102969.28;5126758;27;20039;-61
2024/01/08 11:29:08;;;;;;;7.20;2.47;;;;;;;-3.70;61.12;102961.81;5126592;27;20031;-60
2024/01/08 11:32:01;;;;;;;7.10;2.10;;;;;;;-3.73;59.82;102963.06;5122544;27;20031;-61
2024/01/08 11:34:32;;;;;;;9.02;3.33;;;;;;;-3.64;60.38;102962.63;5103925;27;20038;-61
2024/01/08 11:37:06;;;;;;;6.97;2.07;;;;;;;-3.61;59.80;102968.22;5127008;27;20043;-58
2024/01/08 11:39:38;;;;;;;9.20;2.47;;;;;;;-3.73;58.16;102974.34;5126877;27;20083;-65
2024/01/08 11:42:05;;;;;;;7.65;2.22;;;;;;;-3.77;58.34;102977.25;5126915;27;20023;-60
2024/01/08 11:44:30;;;;;;;7.53;2.55;;;;;;;-3.67;59.05;102975.16;5126799;27;20039;-61
2024/01/08 11:46:56;;;;;;;7.87;2.83;;;;;;;-3.62;58.80;102974.09;5123357;27;20300;-60
2024/01/08 11:49:21;;;;;;;8.90;3.17;;;;;;;-3.53;58.83;102974.38;5110706;27;20042;-66
2024/01/08 11:51:51;;;;;;;7.83;2.60;;;;;;;-3.48;57.99;102981.06;5113758;27;20110;-60
2024/01/08 11:54:18;;;;;;;11.05;2.70;;;;;;;-3.54;57.32;102977.69;5126747;27;20038;-59
2024/01/08 11:56:43;;;;;;;7.40;2.60;;;;;;;-3.57;57.22;102977.28;5105871;27;20042;-64
2024/01/08 11:59:09;;;;;;;7.93;2.90;;;;;;;-3.47;57.55;102975.19;5113459;27;20044;-61
2024/01/08 12:01:35;;;;;;;8.88;2.92;;;;;;;-3.33;57.49;102980.50;5108067;27;20096;-61
2024/01/08 12:04:00;;;;;;;7.40;2.63;;;;;;;-3.30;56.77;102980.91;5105311;27;20055;-59
2024/01/08 12:06:27;;;;;;;7.75;2.67;;;;;;;-3.25;57.72;102977.25;5113298;27;20047;-62
2024/01/08 12:08:55;;;;;;;8.20;2.50;;;;;;;-3.28;57.49;102983.69;5122473;27;20053;-60
2024/01/08 12:11:25;;;;;;;6.68;2.58;;;;;;;-3.34;56.17;102983.81;5101810;27;20039;-59
2024/01/08 12:13:51;;;;;;;8.82;3.35;;;;;;;-3.39;55.98;102987.44;5126194;27;20067;-64
2024/01/08 12:16:17;;;;;;;7.50;2.45;;;;;;;-3.21;56.69;102986.34;5125877;27;20495;-60
2024/01/08 12:18:43;;;;;;;7.73;2.37;;;;;;;-2.70;55.57;102979.22;5126262;27;20050;-64
2024/01/08 12:21:09;;;;;;;5.80;2.08;;;;;;;-0.99;51.28;102981.84;5123811;27;20039;-62
2024/01/08 12:23:34;;;;;;;10.40;2.95;;;;;;;-0.23;48.35;102984.22;5120237;27;20038;-59
2024/01/08 12:26:00;;;;;;;12.87;2.73;;;;;;;0.01;47.15;102980.97;5125601;27;20042;-63